Time;durP1;ratioP1;P1;durP2;ratioP2;P2;SDS_P1;SDS_P2;PMS_P1;PMS_P2;Temp;Humidity;BMP_temperature;BMP_pressure;BME280_temperature;BME280_humidity;BME280_pressure;Samples;Min_cycle;Max_cycle;Signal;HPM_P1;HPM_P2
2024/03/18 00:01:45;;;;;;;1.83;1.45;;;12.50;99.90;;;11.92;100.00;101281.41;4121191;28;20031;-72
2024/03/18 00:03:45;;;;;;;1.90;1.20;;;12.50;99.90;;;11.91;100.00;101277.97;4138731;28;20030;-73
2024/03/18 00:05:46;;;;;;;2.10;1.50;;;12.50;99.90;;;11.91;100.00;101280.63;4138709;28;20036;-73
2024/03/18 00:07:51;;;;;;;3.45;1.70;;;12.50;99.90;;;11.91;100.00;101272.69;4138663;28;20065;-72
2024/03/18 00:09:52;;;;;;;1.63;1.27;;;12.50;99.90;;;11.92;100.00;101271.69;4121677;28;20069;-72
2024/03/18 00:11:53;;;;;;;3.70;1.50;;;12.50;99.90;;;11.92;100.00;101271.69;4138423;28;20046;-72
2024/03/18 00:13:54;;;;;;;2.72;1.52;;;12.50;99.90;;;11.95;100.00;101281.94;4137279;28;20076;-72
2024/03/18 00:15:55;;;;;;;1.83;1.42;;;12.50;99.90;;;11.92;100.00;101276.97;4138158;28;20080;-72
2024/03/18 00:17:56;;;;;;;1.83;1.42;;;12.60;99.90;;;11.96;100.00;101278.34;4144756;28;20022;-73
2024/03/18 00:19:56;;;;;;;2.22;1.70;;;12.60;99.90;;;11.96;100.00;101282.78;4120985;28;20454;-73
2024/03/18 00:21:57;;;;;;;2.42;1.38;;;12.60;99.90;;;11.94;100.00;101269.72;4138603;28;20033;-72
2024/03/18 00:23:58;;;;;;;2.75;1.70;;;12.60;99.90;;;11.98;100.00;101284.28;4137424;28;20113;-72
2024/03/18 00:26:00;;;;;;;4.07;1.80;;;12.60;99.90;;;11.97;100.00;101284.47;4121029;28;20030;-73
2024/03/18 00:28:02;;;;;;;4.80;1.85;;;12.60;99.90;;;12.02;100.00;101293.59;4136910;28;20082;-72
2024/03/18 00:30:10;;;;;;;5.10;2.00;;;12.60;99.90;;;12.04;100.00;101296.91;4120671;28;20034;-73
2024/03/18 00:32:12;;;;;;;5.05;2.28;;;12.60;99.90;;;12.06;100.00;101289.66;4138121;28;20047;-72
2024/03/18 00:34:13;;;;;;;6.90;2.05;;;12.60;99.90;;;12.06;100.00;101284.38;4137850;28;20188;-72
2024/03/18 00:36:14;;;;;;;3.00;1.73;;;12.60;99.90;;;12.07;100.00;101291.31;4137974;28;20026;-72
2024/03/18 00:38:15;;;;;;;3.72;1.77;;;12.70;99.90;;;12.05;100.00;101282.72;4138085;28;20023;-72
2024/03/18 00:40:16;;;;;;;8.63;1.70;;;12.60;99.90;;;12.07;100.00;101279.91;4138320;28;20030;-72
2024/03/18 00:42:17;;;;;;;2.17;1.38;;;12.60;99.90;;;12.07;100.00;101277.25;4138081;28;20036;-72
2024/03/18 00:44:23;;;;;;;2.38;1.63;;;12.70;99.90;;;12.06;100.00;101287.03;4137810;28;20030;-72
2024/03/18 00:46:24;;;;;;;3.40;1.75;;;12.60;99.90;;;12.04;100.00;101278.41;4138028;28;20058;-73
2024/03/18 00:48:25;;;;;;;2.10;1.40;;;12.60;99.90;;;11.99;100.00;101285.13;4137950;28;20026;-73
2024/03/18 00:50:25;;;;;;;2.92;1.65;;;12.60;99.90;;;11.93;100.00;101283.09;4137837;28;20034;-72
2024/03/18 00:52:26;;;;;;;1.88;1.30;;;12.60;99.90;;;11.87;100.00;101279.25;4136649;28;20034;-72
2024/03/18 00:54:27;;;;;;;3.53;1.58;;;12.50;99.90;;;11.84;100.00;101291.91;4119549;28;20033;-72
2024/03/18 00:56:28;;;;;;;2.92;1.65;;;12.50;99.90;;;11.80;100.00;101295.88;4138034;28;20066;-73
2024/03/18 00:58:29;;;;;;;2.20;1.40;;;12.50;99.90;;;11.80;100.00;101294.03;4137613;28;20030;-72
2024/03/18 01:00:30;;;;;;;2.25;1.25;;;12.40;99.90;;;11.79;100.00;101289.75;4137621;28;20045;-72
2024/03/18 01:02:31;;;;;;;2.10;1.27;;;12.40;99.90;;;11.77;100.00;101278.47;4137784;28;20026;-73
2024/03/18 01:04:32;;;;;;;3.50;1.10;;;12.40;99.90;;;11.82;100.00;101284.16;4137782;28;20054;-72
2024/03/18 01:06:33;;;;;;;2.90;1.30;;;12.40;99.90;;;11.86;100.00;101282.03;4137718;28;20077;-72
2024/03/18 01:08:34;;;;;;;2.08;1.15;;;12.50;99.90;;;11.86;100.00;101280.22;4137484;28;20486;-72
2024/03/18 01:10:35;;;;;;;3.30;1.30;;;12.50;99.90;;;11.84;100.00;101276.91;4136602;28;20070;-73
2024/03/18 01:12:35;;;;;;;4.85;1.55;;;12.50;99.90;;;11.81;100.00;101279.00;4137635;28;20026;-73
2024/03/18 01:14:36;;;;;;;5.30;1.70;;;12.40;99.90;;;11.75;100.00;101280.44;4137420;28;20026;-72
2024/03/18 01:16:37;;;;;;;2.42;1.20;;;12.40;99.90;;;11.69;100.00;101275.72;4137417;28;20045;-72
2024/03/18 01:18:38;;;;;;;2.53;1.27;;;12.30;99.90;;;11.57;100.00;101276.91;4137514;28;20027;-72
2024/03/18 01:20:39;;;;;;;4.57;1.10;;;12.20;99.90;;;11.43;100.00;101274.78;4136430;28;20027;-72
2024/03/18 01:22:40;;;;;;;1.75;1.00;;;12.10;99.90;;;11.32;100.00;101264.44;4137491;28;20033;-72
2024/03/18 01:24:41;;;;;;;1.42;0.77;;;12.00;99.90;;;11.21;100.00;101269.91;4137382;28;20022;-72
2024/03/18 01:26:42;;;;;;;2.05;1.33;;;11.90;99.90;;;11.10;100.00;101271.78;4137619;28;20022;-72
2024/03/18 01:28:43;;;;;;;4.32;1.20;;;11.80;99.90;;;11.01;100.00;101272.66;4137158;28;20114;-72
2024/03/18 01:30:44;;;;;;;4.93;1.02;;;11.70;99.90;;;10.96;100.00;101272.25;4137464;28;20027;-72
2024/03/18 01:32:44;;;;;;;5.50;1.00;;;11.70;99.90;;;11.03;100.00;101280.41;4135768;28;20038;-72
2024/03/18 01:34:45;;;;;;;3.55;1.17;;;11.70;99.90;;;11.08;100.00;101279.00;4137428;28;20023;-72
2024/03/18 01:36:46;;;;;;;2.20;1.00;;;11.70;99.90;;;11.14;100.00;101282.84;4137319;28;20026;-72
2024/03/18 01:38:47;;;;;;;2.20;1.33;;;11.70;99.90;;;11.20;100.00;101284.91;4137073;28;20055;-72
2024/03/18 01:40:48;;;;;;;3.15;1.88;;;11.80;99.90;;;11.24;100.00;101282.81;4136827;28;20030;-72
2024/03/18 01:42:49;;;;;;;3.33;1.58;;;11.80;99.90;;;11.26;100.00;101280.88;4140592;28;20033;-72
2024/03/18 01:44:55;;;;;;;6.90;2.10;;;11.90;99.90;;;11.29;100.00;101285.88;4153160;28;20026;-72
2024/03/18 01:46:56;;;;;;;4.93;2.00;;;11.90;99.90;;;11.32;100.00;101290.84;4135883;28;20454;-72
2024/03/18 01:48:56;;;;;;;7.32;2.30;;;11.90;99.90;;;11.33;100.00;101287.22;4140386;28;20065;-72
2024/03/18 01:50:57;;;;;;;5.90;2.15;;;12.00;99.90;;;11.35;100.00;101288.72;4136012;28;20037;-72
2024/03/18 01:52:59;;;;;;;4.85;2.10;;;12.00;99.90;;;11.40;100.00;101289.13;4119885;28;20466;-72
2024/03/18 01:55:00;;;;;;;4.75;1.92;;;12.00;99.90;;;11.36;100.00;101273.72;4137124;28;20027;-72
2024/03/18 01:57:01;;;;;;;2.88;1.90;;;12.00;99.90;;;11.43;100.00;101282.72;4136836;28;20061;-72
2024/03/18 01:59:05;;;;;;;3.00;1.98;;;12.00;99.90;;;11.47;100.00;101289.34;4119254;28;20027;-72
2024/03/18 02:01:07;;;;;;;3.83;1.77;;;12.00;99.90;;;11.49;100.00;101279.50;4135651;28;20588;-72
2024/03/18 02:03:09;;;;;;;3.13;1.65;;;12.10;99.90;;;11.51;100.00;101269.59;4119437;28;20026;-72
2024/03/18 02:05:10;;;;;;;3.72;1.67;;;12.10;99.90;;;11.53;100.00;101283.47;4135028;28;20493;-72
2024/03/18 02:07:26;;;;;;;4.05;1.75;;;12.10;99.90;;;11.55;100.00;101278.88;4136484;28;20082;-72
2024/03/18 02:09:29;;;;;;;3.45;1.80;;;12.10;99.90;;;11.55;100.00;101282.38;4134839;28;20039;-72
2024/03/18 02:11:30;;;;;;;4.35;1.63;;;12.20;99.90;;;11.57;100.00;101282.19;4136817;28;20510;-72
2024/03/18 02:13:32;;;;;;;4.15;1.67;;;12.20;99.90;;;11.57;100.00;101280.41;4136321;28;20026;-73
2024/03/18 02:15:33;;;;;;;2.38;1.38;;;12.20;99.90;;;11.61;100.00;101288.88;4135620;28;20030;-72
2024/03/18 02:17:34;;;;;;;3.50;1.75;;;12.20;99.90;;;11.62;100.00;101282.56;4135453;28;20057;-72
2024/03/18 02:19:35;;;;;;;4.63;1.60;;;12.20;99.90;;;11.64;100.00;101281.47;4119365;28;20510;-72
2024/03/18 02:21:35;;;;;;;6.57;2.05;;;12.30;99.90;;;11.65;100.00;101275.19;4136417;28;20057;-72
2024/03/18 02:23:36;;;;;;;6.38;1.70;;;12.30;99.90;;;11.71;100.00;101292.28;4135508;28;20026;-72
2024/03/18 02:25:39;;;;;;;3.75;1.63;;;12.30;99.90;;;11.68;100.00;101290.75;4136590;28;20038;-72
2024/03/18 02:27:40;;;;;;;12.20;3.67;;;12.30;99.90;;;11.70;100.00;101282.72;4135118;28;20031;-72
2024/03/18 02:29:41;;;;;;;4.57;2.13;;;12.30;99.90;;;11.72;100.00;101287.84;4118878;28;20034;-72
2024/03/18 02:31:42;;;;;;;3.15;1.60;;;12.30;99.90;;;11.71;100.00;101283.56;4136275;28;20097;-72
2024/03/18 02:33:44;;;;;;;7.60;2.05;;;12.30;99.90;;;11.78;100.00;101288.06;4119375;28;20042;-72
2024/03/18 02:35:45;;;;;;;15.32;2.30;;;12.30;99.90;;;11.80;100.00;101285.28;4136416;28;20033;-72
2024/03/18 02:37:46;;;;;;;6.07;1.45;;;12.40;99.90;;;11.79;100.00;101278.34;4136106;28;20022;-72
2024/03/18 02:39:46;;;;;;;4.50;2.03;;;12.40;99.90;;;11.82;100.00;101285.97;4135885;28;20191;-72
2024/03/18 02:41:51;;;;;;;3.08;1.27;;;12.40;99.90;;;11.82;100.00;101281.50;4136198;28;20038;-72
2024/03/18 02:43:52;;;;;;;11.48;1.95;;;12.40;99.90;;;11.85;100.00;101283.03;4136158;28;20045;-72
2024/03/18 02:45:53;;;;;;;1.98;1.00;;;12.40;99.90;;;11.85;100.00;101283.03;4136137;28;20030;-72
2024/03/18 02:47:54;;;;;;;3.88;1.70;;;12.50;99.90;;;11.86;100.00;101279.38;4136325;28;20029;-72
2024/03/18 02:49:55;;;;;;;5.20;1.70;;;12.40;99.90;;;11.87;100.00;101283.69;4136226;28;20490;-72
2024/03/18 02:51:56;;;;;;;3.28;1.67;;;12.50;99.90;;;11.86;100.00;101274.09;4135061;28;20022;-72
2024/03/18 02:53:57;;;;;;;6.75;1.77;;;12.50;99.90;;;11.89;100.00;101281.72;4136050;28;20568;-72
2024/03/18 02:55:58;;;;;;;8.18;1.92;;;12.50;99.90;;;11.91;100.00;101285.06;4136231;28;20437;-73
2024/03/18 02:57:59;;;;;;;4.32;1.45;;;12.50;99.90;;;11.90;100.00;101281.59;4136125;28;20030;-72
2024/03/18 03:00:00;;;;;;;4.43;1.50;;;12.50;99.90;;;11.91;100.00;101280.63;4135948;28;20026;-72
2024/03/18 03:02:01;;;;;;;8.20;2.65;;;12.50;99.90;;;11.92;100.00;101276.97;4134651;28;20026;-72
2024/03/18 03:04:03;;;;;;;2.78;1.55;;;12.50;99.90;;;11.90;100.00;101283.38;4136180;28;20030;-73
2024/03/18 03:06:04;;;;;;;1.95;1.30;;;12.60;99.90;;;11.90;100.00;101270.16;4134743;28;20054;-73
2024/03/18 03:08:05;;;;;;;4.55;1.38;;;12.50;99.90;;;11.89;100.00;101274.63;4118821;28;20517;-72
2024/03/18 03:10:07;;;;;;;4.65;1.50;;;12.50;99.90;;;11.91;100.00;101280.63;4118750;28;20027;-72
2024/03/18 03:12:11;;;;;;;1.60;1.00;;;12.50;99.90;;;11.92;100.00;101274.31;4136272;28;20561;-72
2024/03/18 03:14:12;;;;;;;;;;;12.50;99.90;;;11.90;100.00;101276.28;4135224;28;20049;-72
2024/03/18 03:16:13;;;;;;;1.73;1.20;;;12.50;99.90;;;11.92;100.00;101284.06;4136165;28;19914;-73
2024/03/18 03:18:14;;;;;;;2.78;1.13;;;12.60;99.90;;;11.95;100.00;101279.31;4136565;28;20046;-72
2024/03/18 03:20:19;;;;;;;16.63;2.40;;;12.60;99.90;;;11.94;100.00;101282.94;4139420;28;20034;-73
2024/03/18 03:22:20;;;;;;;4.20;1.70;;;12.50;99.90;;;11.92;100.00;101282.25;4138174;28;20022;-72
2024/03/18 03:24:20;;;;;;;4.70;2.05;;;12.50;99.90;;;11.92;100.00;101289.34;4138088;28;20502;-72
2024/03/18 03:26:21;;;;;;;2.13;1.58;;;12.60;99.90;;;11.95;100.00;101284.59;4121875;28;20022;-72
2024/03/18 03:28:22;;;;;;;12.48;1.98;;;12.50;99.90;;;11.90;100.00;101276.28;4138967;28;20077;-72
2024/03/18 03:30:24;;;;;;;11.52;2.00;;;12.60;99.90;;;11.96;100.00;101286.25;4139146;28;20026;-72
2024/03/18 03:32:25;;;;;;;5.32;1.83;;;12.50;99.90;;;11.93;100.00;101286.56;4139006;28;20081;-72
2024/03/18 03:34:26;;;;;;;4.70;1.90;;;12.60;99.90;;;11.96;100.00;101280.97;4121646;28;20030;-72
2024/03/18 03:36:27;;;;;;;3.53;1.80;;;12.60;99.90;;;11.97;100.00;101293.22;4139156;28;20080;-72
2024/03/18 03:38:28;;;;;;;3.30;1.40;;;12.60;99.90;;;11.96;100.00;101278.34;4138461;28;20034;-73
2024/03/18 03:40:28;;;;;;;2.03;1.50;;;12.60;99.90;;;11.98;100.00;101288.75;4139053;28;20066;-72
2024/03/18 03:42:29;;;;;;;2.42;1.20;;;12.60;99.90;;;11.98;100.00;101281.66;4137656;28;20561;-73
2024/03/18 03:44:30;;;;;;;3.10;1.10;;;12.60;99.90;;;12.02;100.00;101288.31;4121408;28;20541;-72
2024/03/18 03:46:32;;;;;;;2.25;1.30;;;12.60;99.90;;;12.04;100.00;101282.84;4121734;28;20569;-73
2024/03/18 03:48:32;;;;;;;2.42;1.23;;;12.60;99.90;;;12.04;100.00;101288.97;4138816;28;20038;-72
2024/03/18 03:50:33;;;;;;;3.25;1.10;;;12.60;99.90;;;12.06;100.00;101291.47;4121426;28;20033;-72
2024/03/18 03:52:34;;;;;;;2.63;0.98;;;12.60;99.90;;;12.06;100.00;101296.78;4139074;28;20100;-72
2024/03/18 03:54:35;;;;;;;1.20;0.77;;;12.70;99.90;;;12.07;100.00;101288.66;4139082;28;20022;-72
2024/03/18 03:56:36;;;;;;;3.35;1.60;;;12.60;99.90;;;12.05;100.00;101288.00;4138831;28;20033;-72
2024/03/18 03:58:40;;;;;;;3.08;1.38;;;12.60;99.90;;;12.06;100.00;101294.13;4137413;28;20081;-73
2024/03/18 04:00:45;;;;;;;2.40;1.55;;;12.70;99.90;;;12.06;100.00;101292.31;4121871;28;20026;-72
2024/03/18 04:02:46;;;;;;;2.65;1.23;;;12.70;99.90;;;12.07;100.00;101293.97;4137357;28;20146;-72
2024/03/18 04:04:47;;;;;;;5.07;1.05;;;12.70;99.90;;;12.08;100.00;101305.38;4138653;28;20030;-73
2024/03/18 04:06:48;;;;;;;2.15;1.10;;;12.70;99.90;;;12.06;100.00;101297.59;4138342;28;20027;-73
2024/03/18 04:08:49;;;;;;;2.08;1.10;;;12.70;99.90;;;12.09;100.00;101304.41;4137405;28;20023;-73
2024/03/18 04:10:50;;;;;;;1.98;1.00;;;12.70;99.90;;;12.06;100.00;101307.34;4138836;28;20027;-72
2024/03/18 04:12:51;;;;;;;2.00;1.30;;;12.70;99.90;;;12.07;100.00;101304.53;4138550;28;20030;-73
2024/03/18 04:14:52;;;;;;;1.90;1.13;;;12.70;99.90;;;12.07;100.00;101303.69;4138124;28;20022;-73
2024/03/18 04:16:53;;;;;;;3.28;1.00;;;12.70;99.90;;;12.07;100.00;101309.81;4154864;28;20030;-73
2024/03/18 04:18:54;;;;;;;1.15;0.80;;;12.70;99.90;;;12.06;100.00;101305.53;4144747;28;20023;-73
2024/03/18 04:20:55;;;;;;;1.40;0.85;;;12.70;99.90;;;12.09;100.00;101312.34;4138567;28;20030;-73
2024/03/18 04:22:56;;;;;;;1.80;0.90;;;12.70;99.90;;;12.08;100.00;101310.66;4137354;28;20065;-73
2024/03/18 04:24:57;;;;;;;3.22;1.20;;;12.70;99.90;;;12.09;100.00;101307.88;4138247;28;20030;-72
2024/03/18 04:26:57;;;;;;;1.77;0.98;;;12.70;99.90;;;12.09;100.00;101309.69;4138364;28;20545;-72
2024/03/18 04:28:58;;;;;;;1.40;0.90;;;12.70;99.90;;;12.09;100.00;101312.34;4136604;28;20105;-72
2024/03/18 04:31:02;;;;;;;2.78;1.20;;;12.70;99.90;;;12.08;100.00;101311.50;4120853;28;20414;-73
2024/03/18 04:33:07;;;;;;;;;;;12.70;99.90;;;12.08;100.00;101310.66;4124895;28;20030;-72
2024/03/18 04:35:08;;;;;;;4.47;1.98;;;12.70;99.90;;;12.09;100.00;101312.34;4138258;28;19913;-72
2024/03/18 04:37:09;;;;;;;3.67;2.10;;;12.70;99.90;;;12.08;100.00;101316.78;4138245;28;20041;-72
2024/03/18 04:39:10;;;;;;;3.67;1.60;;;12.70;99.90;;;12.09;100.00;101314.97;4139956;28;20030;-72
2024/03/18 04:41:12;;;;;;;2.45;1.90;;;12.70;99.90;;;12.07;100.00;101314.28;4138317;28;20037;-72
2024/03/18 04:43:12;;;;;;;2.88;2.05;;;12.70;99.90;;;12.03;100.00;101323.50;4120583;28;20015;-72
2024/03/18 04:45:19;;;;;;;3.30;1.73;;;12.60;99.90;;;11.97;100.00;101319.66;4138059;28;20030;-73
2024/03/18 04:47:22;;;;;;;2.33;1.40;;;12.60;99.90;;;11.88;100.00;101325.84;4137359;28;20082;-73
2024/03/18 04:49:23;;;;;;;4.57;1.33;;;12.50;99.90;;;11.77;100.00;101323.41;4137883;28;20061;-73
2024/03/18 04:51:24;;;;;;;3.75;1.10;;;12.50;99.90;;;11.74;100.00;101318.41;4136762;28;20038;-72
2024/03/18 04:53:25;;;;;;;3.28;1.13;;;12.40;99.90;;;11.71;100.00;101318.72;4138131;28;20471;-73
2024/03/18 04:55:26;;;;;;;2.72;1.00;;;12.40;99.90;;;11.70;100.00;101326.81;4137868;28;20453;-72
2024/03/18 04:57:27;;;;;;;4.60;1.05;;;12.40;99.90;;;11.68;100.00;101327.75;4137997;28;20061;-73
2024/03/18 04:59:28;;;;;;;2.13;0.70;;;12.40;99.90;;;11.71;100.00;101333.75;4137580;28;20048;-72
2024/03/18 05:01:28;;;;;;;1.77;0.63;;;12.30;99.90;;;11.66;100.00;101323.59;4137498;28;20040;-72
2024/03/18 05:03:29;;;;;;;2.15;0.70;;;12.30;99.90;;;11.65;100.00;101325.41;4137656;28;20038;-73
2024/03/18 05:05:31;;;;;;;2.20;0.50;;;12.30;99.90;;;11.65;100.00;101340.41;4136731;28;20418;-72
2024/03/18 05:07:32;;;;;;;1.30;0.82;;;12.30;99.90;;;11.65;100.00;101335.13;4137753;28;20437;-73
2024/03/18 05:09:34;;;;;;;2.65;0.80;;;12.30;99.90;;;11.66;100.00;101348.22;4136459;28;20034;-73
2024/03/18 05:11:35;;;;;;;6.20;0.88;;;12.30;99.90;;;11.63;100.00;101347.66;4137584;28;20033;-73
2024/03/18 05:13:35;;;;;;;2.25;0.85;;;12.30;99.90;;;11.60;100.00;101347.97;4137556;28;20026;-72
2024/03/18 05:15:37;;;;;;;3.67;0.98;;;12.20;99.90;;;11.56;100.00;101346.59;4137652;28;20061;-72
2024/03/18 05:17:38;;;;;;;3.03;1.95;;;12.20;99.90;;;11.50;100.00;101347.19;4137562;28;20030;-72
2024/03/18 05:19:39;;;;;;;3.25;1.90;;;12.20;99.90;;;11.49;100.00;101345.53;4137372;28;20030;-72
2024/03/18 05:21:40;;;;;;;2.58;1.70;;;12.20;99.90;;;11.42;100.00;101355.84;4137567;28;20410;-72
2024/03/18 05:23:41;;;;;;;3.47;1.23;;;12.10;99.90;;;11.39;100.00;101358.78;4136527;28;20022;-73
2024/03/18 05:25:44;;;;;;;3.50;1.10;;;12.10;99.90;;;11.37;100.00;101362.56;4137443;28;20026;-72
2024/03/18 05:27:46;;;;;;;5.75;1.40;;;12.00;99.90;;;11.34;100.00;101373.41;4136096;28;20114;-73
2024/03/18 05:29:47;;;;;;;3.97;1.15;;;12.00;99.90;;;11.29;100.00;101375.66;4136996;28;20494;-73
2024/03/18 05:31:48;;;;;;;4.72;1.30;;;12.00;99.90;;;11.25;100.00;101375.13;4137101;28;20424;-73
2024/03/18 05:33:50;;;;;;;1.55;0.93;;;12.00;99.90;;;11.26;100.00;101375.94;4137368;28;20034;-72
2024/03/18 05:35:51;;;;;;;4.57;0.73;;;11.90;99.90;;;11.21;100.00;101378.19;4137347;28;20019;-72
2024/03/18 05:37:51;;;;;;;5.47;0.90;;;11.90;99.90;;;11.20;100.00;101379.16;4138865;28;20026;-73
2024/03/18 05:39:53;;;;;;;4.40;1.00;;;11.90;99.90;;;11.13;100.00;101386.81;4136965;28;20050;-73
2024/03/18 05:41:54;;;;;;;5.40;1.17;;;11.80;99.90;;;11.11;100.00;101381.69;4135729;28;20033;-72
2024/03/18 05:43:55;;;;;;;3.50;0.90;;;11.80;99.90;;;11.02;100.00;101387.81;4137051;28;20026;-73
2024/03/18 05:45:56;;;;;;;7.22;1.10;;;11.80;99.90;;;11.05;100.00;101384.09;4136050;28;20052;-72
2024/03/18 05:47:57;;;;;;;3.20;0.85;;;11.70;99.90;;;11.05;100.00;101392.81;4119787;28;20027;-72
2024/03/18 05:49:58;;;;;;;7.25;1.20;;;11.70;99.90;;;10.99;100.00;101401.31;4135416;28;20037;-72
2024/03/18 05:51:59;;;;;;;5.30;1.05;;;11.70;99.90;;;10.96;100.00;101398.94;4137004;28;20398;-73
2024/03/18 05:54:00;;;;;;;3.90;1.35;;;11.60;99.90;;;10.93;100.00;101395.78;4135843;28;20033;-72
2024/03/18 05:56:00;;;;;;;5.28;1.33;;;11.60;99.90;;;10.88;100.00;101401.47;4137048;28;20033;-72
2024/03/18 05:58:03;;;;;;;5.40;1.10;;;11.60;99.90;;;10.86;100.00;101403.44;4119432;28;20038;-73
2024/03/18 06:00:07;;;;;;;3.40;1.42;;;11.50;99.90;;;10.84;100.00;101417.75;4136934;28;20031;-72
2024/03/18 06:02:08;;;;;;;3.88;1.00;;;11.50;99.90;;;10.79;100.00;101402.31;4136650;28;20509;-72
2024/03/18 06:04:12;;;;;;;5.22;1.10;;;11.50;99.90;;;10.83;100.00;101409.00;4137129;28;20034;-73
2024/03/18 06:06:13;;;;;;;4.50;1.50;;;11.50;99.90;;;10.87;100.00;101410.34;4135825;28;20047;-73
2024/03/18 06:08:14;;;;;;;6.75;1.65;;;11.50;99.90;;;10.82;100.00;101412.59;4136706;28;20054;-73
2024/03/18 06:10:15;;;;;;;10.85;2.20;;;11.40;99.90;;;10.79;100.00;101410.25;4106626;28;20034;-73
2024/03/18 06:12:16;;;;;;;6.80;1.45;;;11.40;99.90;;;10.77;100.00;101414.84;4142582;28;20444;-73
2024/03/18 06:14:17;;;;;;;4.40;1.05;;;11.40;99.90;;;10.77;100.00;101414.00;4135410;28;20118;-73
2024/03/18 06:16:18;;;;;;;4.35;1.25;;;11.40;99.90;;;10.76;100.00;101421.06;4135499;28;20062;-72
2024/03/18 06:18:19;;;;;;;6.88;1.13;;;11.40;99.90;;;10.71;100.00;101425.13;4131964;28;20094;-72
2024/03/18 06:20:20;;;;;;;11.73;1.70;;;11.40;99.90;;;10.71;100.00;101425.13;4136692;28;20041;-73
2024/03/18 06:22:22;;;;;;;6.60;1.92;;;11.40;99.90;;;10.68;100.00;101425.38;4135588;28;20494;-72
2024/03/18 06:24:25;;;;;;;5.55;1.00;;;11.40;99.90;;;10.73;100.00;101431.91;4136604;28;20034;-72
2024/03/18 06:26:25;;;;;;;8.93;1.55;;;11.40;99.90;;;10.72;100.00;101424.97;4136364;28;20030;-72
2024/03/18 06:28:29;;;;;;;8.23;1.25;;;11.40;99.90;;;10.72;100.00;101430.22;4136186;28;20064;-72
2024/03/18 06:30:29;;;;;;;7.95;1.45;;;11.40;99.90;;;10.74;100.00;101428.31;4119216;28;20030;-72
2024/03/18 06:32:31;;;;;;;7.00;1.33;;;11.40;99.90;;;10.78;100.00;101424.41;4136194;28;20046;-73
2024/03/18 06:34:31;;;;;;;8.63;1.65;;;11.40;99.90;;;10.83;100.00;101431.91;4119027;28;20035;-72
2024/03/18 06:36:32;;;;;;;4.85;1.55;;;11.40;99.90;;;10.87;100.00;101442.03;4136413;28;20045;-72
2024/03/18 06:38:33;;;;;;;9.20;1.77;;;11.40;99.90;;;10.91;100.00;101439.94;4139412;28;20041;-72
2024/03/18 06:40:34;;;;;;;9.32;2.00;;;11.50;99.90;;;10.89;100.00;101437.47;4136094;28;20084;-72
2024/03/18 06:42:35;;;;;;;7.38;2.10;;;11.50;99.90;;;10.93;100.00;101441.47;4135008;28;20022;-73
2024/03/18 06:44:42;;;;;;;7.43;1.77;;;11.50;99.90;;;10.96;100.00;101433.25;4118978;28;20035;-72
2024/03/18 06:46:43;;;;;;;13.30;1.95;;;11.60;99.90;;;11.00;100.00;101447.84;4136266;28;20031;-72
2024/03/18 06:48:44;;;;;;;12.00;3.50;;;11.60;99.90;;;10.98;100.00;101443.69;4136089;28;20077;-73
2024/03/18 06:50:45;;;;;;;14.20;2.35;;;11.60;99.90;;;11.01;100.00;101451.34;4136079;28;20030;-73
2024/03/18 06:52:46;;;;;;;7.68;1.45;;;11.60;99.90;;;11.09;100.00;101462.84;4136296;28;20506;-72
2024/03/18 06:54:47;;;;;;;10.63;3.10;;;11.70;99.90;;;11.07;100.00;101456.88;4135162;28;20453;-72
2024/03/18 06:56:48;;;;;;;5.18;1.65;;;11.70;99.90;;;11.14;100.00;101456.31;4136256;28;20026;-73
2024/03/18 06:58:49;;;;;;;7.07;1.70;;;11.70;99.90;;;11.19;100.00;101454.06;4135920;28;20033;-72
2024/03/18 07:00:50;;;;;;;7.20;2.00;;;11.70;99.90;;;11.23;100.00;101463.38;4136157;28;20030;-73
2024/03/18 07:02:52;;;;;;;8.85;1.38;;;11.80;99.90;;;11.23;100.00;101456.28;4136115;28;20030;-72
2024/03/18 07:04:52;;;;;;;9.40;2.03;;;11.80;99.90;;;11.22;100.00;101467.84;4134987;28;20034;-73
2024/03/18 07:06:53;;;;;;;11.05;1.50;;;11.80;99.90;;;11.27;100.00;101464.75;4135836;28;20026;-73
2024/03/18 07:08:54;;;;;;;8.27;1.83;;;11.90;99.90;;;11.33;100.00;101467.66;4136139;28;20042;-72
2024/03/18 07:10:55;;;;;;;5.95;1.23;;;11.90;99.90;;;11.42;100.00;101465.97;4136152;28;20022;-73
2024/03/18 07:12:56;;;;;;;10.05;1.42;;;12.00;99.90;;;11.47;100.00;101471.63;4135750;28;20026;-73
2024/03/18 07:14:57;;;;;;;10.30;2.00;;;12.00;99.90;;;11.54;100.00;101475.38;4135849;28;20026;-72
2024/03/18 07:16:58;;;;;;;3.95;1.50;;;12.10;99.90;;;11.58;100.00;101479.41;4136223;28;20030;-72
2024/03/18 07:18:59;;;;;;;9.88;1.60;;;12.10;99.90;;;11.65;100.00;101473.38;4134962;28;20057;-72
2024/03/18 07:20:59;;;;;;;7.30;1.50;;;12.20;99.90;;;11.72;100.00;101475.47;4136073;28;20057;-72
2024/03/18 07:23:00;;;;;;;7.03;2.20;;;12.20;99.90;;;11.70;100.00;101480.94;4135804;28;20026;-72
2024/03/18 07:25:02;;;;;;;8.98;2.47;;;12.30;99.90;;;11.68;100.00;101469.63;4136016;28;20623;-72
2024/03/18 07:27:03;;;;;;;10.70;2.08;;;12.30;99.90;;;11.70;100.00;101475.66;4135965;28;20023;-72
2024/03/18 07:29:04;;;;;;;8.18;1.98;;;12.30;99.90;;;11.77;100.00;101492.56;4135929;28;20039;-72
2024/03/18 07:31:08;;;;;;;8.63;1.45;;;12.30;99.90;;;11.82;100.00;101487.69;4118169;28;20062;-73
2024/03/18 07:33:09;;;;;;;11.32;2.05;;;12.40;99.90;;;11.87;100.00;101484.59;4135992;28;20029;-72
2024/03/18 07:35:14;;;;;;;7.20;2.10;;;12.40;99.90;;;11.85;100.00;101487.41;4135990;28;20034;-73
2024/03/18 07:37:15;;;;;;;8.35;1.63;;;12.40;99.90;;;11.86;100.00;101491.69;4135889;28;20026;-72
2024/03/18 07:39:16;;;;;;;9.15;1.92;;;12.50;99.90;;;11.98;100.00;101485.25;4139883;28;20033;-72
2024/03/18 07:41:17;;;;;;;5.68;1.42;;;12.50;99.90;;;12.03;100.00;101501.53;4152103;28;20034;-73
2024/03/18 07:43:18;;;;;;;8.70;1.38;;;12.60;99.90;;;12.07;100.00;101492.28;4136946;28;20026;-72
2024/03/18 07:45:20;;;;;;;5.00;1.45;;;12.60;99.90;;;12.20;100.00;101503.38;4135881;28;20030;-72
2024/03/18 07:47:20;;;;;;;6.20;1.77;;;12.70;99.90;;;12.30;100.00;101505.13;4134281;28;20089;-72
2024/03/18 07:49:21;;;;;;;7.38;2.35;;;12.80;99.90;;;12.32;100.00;101503.16;4135693;28;20490;-72
2024/03/18 07:51:22;;;;;;;8.95;2.55;;;12.80;99.90;;;12.25;100.00;101499.44;4134327;28;20502;-72
2024/03/18 07:53:23;;;;;;;7.07;2.13;;;12.80;99.90;;;12.17;100.00;101511.59;4135773;28;20483;-72
2024/03/18 07:55:24;;;;;;;7.93;2.00;;;12.80;99.90;;;12.17;100.00;101500.19;4135136;28;20376;-72
2024/03/18 07:57:24;;;;;;;5.32;1.10;;;12.80;99.90;;;12.20;100.00;101508.66;4135822;28;20046;-71
2024/03/18 07:59:25;;;;;;;6.97;1.50;;;12.80;99.90;;;12.19;100.00;101506.13;4135503;28;20030;-72
2024/03/18 08:01:26;;;;;;;6.07;1.75;;;12.80;99.90;;;12.24;100.00;101509.19;4135510;28;20068;-72
2024/03/18 08:03:27;;;;;;;5.95;1.83;;;12.80;99.90;;;12.32;100.00;101503.16;4134829;28;20022;-72
2024/03/18 08:05:29;;;;;;;6.35;2.33;;;12.80;99.90;;;12.29;100.00;101509.56;4141939;28;20049;-71
2024/03/18 08:07:29;;;;;;;6.78;2.35;;;12.80;99.90;;;12.40;100.00;101508.53;4155004;28;20053;-72
2024/03/18 08:09:31;;;;;;;6.22;1.38;;;12.90;99.90;;;12.46;100.00;101507.94;4142164;28;20030;-71
2024/03/18 08:11:32;;;;;;;6.03;1.95;;;12.90;99.90;;;12.50;100.00;101509.31;4121367;28;20025;-71
2024/03/18 08:13:32;;;;;;;7.55;2.67;;;13.00;99.90;;;12.57;100.00;101516.47;4137259;28;20074;-71
2024/03/18 08:15:33;;;;;;;5.65;2.60;;;13.10;99.90;;;12.57;100.00;101518.31;4138604;28;20057;-71
2024/03/18 08:17:34;;;;;;;7.30;1.45;;;13.10;99.90;;;12.67;100.00;101521.72;4137343;28;20047;-71
2024/03/18 08:19:36;;;;;;;7.63;2.03;;;13.20;99.90;;;12.75;100.00;101516.53;4138335;28;20057;-71